Time;durP1;ratioP1;P1;durP2;ratioP2;P2;SDS_P1;SDS_P2;PMS_P1;PMS_P2;Temp;Humidity;BMP_temperature;BMP_pressure;BME280_temperature;BME280_humidity;BME280_pressure;Samples;Min_cycle;Max_cycle;Signal;HPM_P1;HPM_P2
2022/12/11 00:00:41;;;;;;;5.90;3.90;;;4.20;88.80;;;;;;4911928;29;20201;-73
2022/12/11 00:03:10;;;;;;;7.90;4.60;;;4.30;88.80;;;;;;4912992;29;20682;-72
2022/12/11 00:05:43;;;;;;;7.85;4.20;;;4.30;88.90;;;;;;4916425;29;20688;-72
2022/12/11 00:08:14;;;;;;;6.82;4.05;;;4.30;88.90;;;;;;4915874;28;20245;-72
2022/12/11 00:10:48;;;;;;;7.85;4.93;;;4.30;88.90;;;;;;4915501;29;20252;-74
2022/12/11 00:13:16;;;;;;;5.15;4.10;;;4.30;88.90;;;;;;4928579;28;20233;-72
2022/12/11 00:15:45;;;;;;;4.82;4.28;;;4.20;88.90;;;;;;4923170;29;20518;-73
2022/12/11 00:18:13;;;;;;;8.32;5.10;;;4.30;88.90;;;;;;4927418;28;20228;-73
2022/12/11 00:20:42;;;;;;;8.52;4.55;;;4.30;88.90;;;;;;4920584;29;20684;-72
2022/12/11 00:23:12;;;;;;;6.20;4.30;;;4.30;88.90;;;;;;4914146;29;20705;-72
2022/12/11 00:25:43;;;;;;;5.10;4.35;;;4.20;88.80;;;;;;4912898;29;20659;-73
2022/12/11 00:28:12;;;;;;;7.95;4.57;;;4.30;89.00;;;;;;4925281;29;20308;-74
2022/12/11 00:30:42;;;;;;;8.13;4.78;;;4.30;88.90;;;;;;4926952;29;20600;-73
2022/12/11 00:33:13;;;;;;;7.20;4.18;;;4.30;88.90;;;;;;4902595;29;20721;-72
2022/12/11 00:35:43;;;;;;;7.30;4.05;;;4.20;88.90;;;;;;4917905;29;20273;-74
2022/12/11 00:38:16;;;;;;;5.88;3.45;;;4.20;88.90;;;;;;4912936;29;20308;-74
2022/12/11 00:40:45;;;;;;;6.63;3.60;;;4.20;88.90;;;;;;4910803;29;20228;-73
2022/12/11 00:43:14;;;;;;;7.28;4.32;;;4.20;88.90;;;;;;4912162;29;20283;-72
2022/12/11 00:45:43;;;;;;;5.53;3.85;;;4.20;88.90;;;;;;4924444;29;20194;-74
2022/12/11 00:48:12;;;;;;;4.68;3.97;;;4.20;88.90;;;;;;4941863;28;20220;-73
2022/12/11 00:50:42;;;;;;;7.10;3.85;;;4.20;88.90;;;;;;4906824;29;20257;-73
2022/12/11 00:53:10;;;;;;;7.18;4.45;;;4.20;88.90;;;;;;4914067;29;20308;-73
2022/12/11 00:55:42;;;;;;;5.20;4.15;;;4.30;89.00;;;;;;4916436;29;20667;-74
2022/12/11 00:58:11;;;;;;;5.47;3.55;;;4.20;88.90;;;;;;4919301;28;20233;-73
2022/12/11 01:00:40;;;;;;;6.25;4.15;;;4.20;88.90;;;;;;4945404;29;20211;-73
2022/12/11 01:03:12;;;;;;;6.28;4.32;;;4.30;88.90;;;;;;4920086;29;20307;-73
2022/12/11 01:05:41;;;;;;;6.05;4.32;;;4.20;88.90;;;;;;4926402;29;20579;-74
2022/12/11 01:08:09;;;;;;;6.75;3.83;;;4.20;88.90;;;;;;4908680;28;20257;-75
2022/12/11 01:10:39;;;;;;;6.55;4.40;;;4.30;89.00;;;;;;4922214;29;20737;-74
2022/12/11 01:13:08;;;;;;;5.13;3.70;;;4.20;88.90;;;;;;4907795;29;20241;-76
2022/12/11 01:15:40;;;;;;;5.93;3.47;;;4.20;88.80;;;;;;4914498;29;20218;-73
2022/12/11 01:18:09;;;;;;;5.80;3.55;;;4.20;88.90;;;;;;4912639;29;20721;-72
2022/12/11 01:20:39;;;;;;;6.20;4.30;;;4.20;88.90;;;;;;4916782;29;20193;-73
2022/12/11 01:23:09;;;;;;;8.93;5.15;;;4.20;88.90;;;;;;4910125;29;20232;-75
2022/12/11 01:25:40;;;;;;;5.88;3.75;;;4.20;88.90;;;;;;4893936;29;20200;-73
2022/12/11 01:28:09;;;;;;;6.63;4.78;;;4.20;88.80;;;;;;4925465;29;20315;-74
2022/12/11 01:30:37;;;;;;;6.60;4.25;;;4.20;88.90;;;;;;4919945;29;20284;-73
2022/12/11 01:33:06;;;;;;;5.65;3.65;;;4.20;88.90;;;;;;4911961;29;20272;-73
2022/12/11 01:35:34;;;;;;;6.28;4.75;;;4.20;88.90;;;;;;4921072;29;20682;-73
2022/12/11 01:38:02;;;;;;;9.07;4.47;;;4.20;88.90;;;;;;4908550;29;20360;-73
2022/12/11 01:40:31;;;;;;;7.68;4.25;;;4.20;88.90;;;;;;4910170;29;20203;-74
2022/12/11 01:43:01;;;;;;;6.03;3.50;;;4.20;88.90;;;;;;4912002;29;20745;-72
2022/12/11 01:45:38;;;;;;;5.28;3.97;;;4.30;89.00;;;;;;4925596;29;20625;-72
2022/12/11 01:48:10;;;;;;;6.07;4.50;;;4.20;88.90;;;;;;4921063;29;20237;-73
2022/12/11 01:50:43;;;;;;;6.78;4.35;;;4.20;88.90;;;;;;4930373;29;20208;-74
2022/12/11 01:53:16;;;;;;;4.93;4.05;;;4.30;89.00;;;;;;4917717;29;20682;-73
2022/12/11 01:55:47;;;;;;;8.75;4.30;;;4.30;89.00;;;;;;4924885;29;20636;-74
2022/12/11 01:58:17;;;;;;;6.90;3.83;;;4.20;88.90;;;;;;4908155;29;20333;-73
2022/12/11 02:00:46;;;;;;;5.47;4.00;;;4.20;88.90;;;;;;4925026;29;20232;-73
2022/12/11 02:03:14;;;;;;;5.35;3.42;;;4.20;88.90;;;;;;4922684;29;20240;-73
2022/12/11 02:05:43;;;;;;;4.85;3.72;;;4.20;88.90;;;;;;4910511;29;20280;-74
2022/12/11 02:08:12;;;;;;;4.88;3.75;;;4.20;88.90;;;;;;4907077;29;20221;-73
2022/12/11 02:10:48;;;;;;;4.88;3.30;;;4.20;88.90;;;;;;4914184;29;20201;-74
2022/12/11 02:13:26;;;;;;;4.47;3.60;;;4.20;88.90;;;;;;4909511;29;20300;-74
2022/12/11 02:16:03;;;;;;;6.65;3.90;;;4.20;89.00;;;;;;4924611;29;20225;-72
2022/12/11 02:18:37;;;;;;;5.28;3.85;;;4.20;89.00;;;;;;4920939;29;20553;-73
2022/12/11 02:21:13;;;;;;;5.03;3.85;;;4.20;88.90;;;;;;4918830;29;20211;-73
2022/12/11 02:24:00;;;;;;;3.45;2.90;;;4.20;89.00;;;;;;4911328;29;20224;-73
2022/12/11 02:27:08;;;;;;;6.22;4.00;;;4.20;88.90;;;;;;4908341;29;20229;-75
2022/12/11 02:29:44;;;;;;;5.95;3.80;;;4.20;89.00;;;;;;4902082;29;20650;-74
2022/12/11 02:32:19;;;;;;;5.47;3.15;;;4.20;88.90;;;;;;4923632;29;20203;-74
2022/12/11 02:34:54;;;;;;;5.03;3.72;;;4.20;88.90;;;;;;4925739;29;20197;-73
2022/12/11 02:37:26;;;;;;;5.13;3.45;;;4.20;88.90;;;;;;4924288;29;20292;-73
2022/12/11 02:39:56;;;;;;;4.00;3.20;;;4.20;88.90;;;;;;4925438;29;20212;-73
2022/12/11 02:42:29;;;;;;;7.40;4.10;;;4.20;88.90;;;;;;4925104;29;20697;-72
2022/12/11 02:45:00;;;;;;;4.55;3.25;;;4.20;89.00;;;;;;4904376;29;20289;-73
2022/12/11 02:47:30;;;;;;;4.30;2.88;;;4.20;89.00;;;;;;4915874;29;20284;-73
2022/12/11 02:50:02;;;;;;;4.45;3.55;;;4.20;89.00;;;;;;4909540;29;20300;-74
2022/12/11 02:52:32;;;;;;;5.63;3.10;;;4.20;88.90;;;;;;4920930;29;20291;-72
2022/12/11 02:55:02;;;;;;;6.30;3.88;;;4.20;89.00;;;;;;4908698;29;20208;-73
2022/12/11 02:57:37;;;;;;;4.32;3.60;;;4.20;88.90;;;;;;4912020;29;20224;-73
2022/12/11 03:00:09;;;;;;;4.70;3.05;;;4.20;89.00;;;;;;4908395;29;20683;-72
2022/12/11 03:02:38;;;;;;;4.50;3.40;;;4.20;88.90;;;;;;4908136;29;20201;-74
2022/12/11 03:05:07;;;;;;;6.05;3.85;;;4.30;89.00;;;;;;4908988;29;20212;-72
2022/12/11 03:07:40;;;;;;;5.95;3.83;;;4.20;88.90;;;;;;4917108;29;20245;-72
2022/12/11 03:10:13;;;;;;;6.75;3.83;;;4.20;88.90;;;;;;4924327;29;20528;-74
2022/12/11 03:12:45;;;;;;;5.82;4.35;;;4.20;89.00;;;;;;4910782;29;20603;-76
2022/12/11 03:15:29;;;;;;;5.97;3.40;;;4.20;89.00;;;;;;4927623;29;20292;-73
2022/12/11 03:18:05;;;;;;;5.72;4.03;;;4.20;88.90;;;;;;4933171;28;20247;-74
2022/12/11 03:20:38;;;;;;;4.00;3.10;;;4.20;88.90;;;;;;4921203;29;20228;-72
2022/12/11 03:23:17;;;;;;;4.57;3.10;;;4.20;88.90;;;;;;4909635;29;20225;-73
2022/12/11 03:25:52;;;;;;;6.32;3.92;;;4.20;89.00;;;;;;4911685;29;20280;-73
2022/12/11 03:28:26;;;;;;;5.95;3.30;;;4.20;89.00;;;;;;4914062;29;20248;-73
2022/12/11 03:30:57;;;;;;;5.35;4.78;;;4.20;88.90;;;;;;4917063;29;20292;-75
2022/12/11 03:33:31;;;;;;;5.75;3.70;;;4.20;88.90;;;;;;4912185;29;20213;-73
2022/12/11 03:36:06;;;;;;;4.20;3.22;;;4.20;88.90;;;;;;4915475;29;20568;-73
2022/12/11 03:38:58;;;;;;;6.18;3.83;;;4.20;88.90;;;;;;4923055;29;20300;-74
2022/12/11 03:41:28;;;;;;;6.43;3.63;;;4.20;89.00;;;;;;4927781;29;20208;-73
2022/12/11 03:43:59;;;;;;;5.70;4.13;;;4.20;89.00;;;;;;4910627;29;20362;-75
2022/12/11 03:46:32;;;;;;;6.22;3.63;;;4.20;89.00;;;;;;4928204;29;20601;-73
2022/12/11 03:49:05;;;;;;;7.00;4.05;;;4.20;89.00;;;;;;4915728;28;20490;-73
2022/12/11 03:51:35;;;;;;;5.88;3.60;;;4.20;89.00;;;;;;4927167;29;20197;-72
2022/12/11 03:54:04;;;;;;;6.40;3.58;;;4.20;89.10;;;;;;4910462;28;20588;-73
2022/12/11 03:56:34;;;;;;;4.63;3.38;;;4.20;88.90;;;;;;4911334;29;20202;-74
2022/12/11 03:59:03;;;;;;;4.50;3.53;;;4.20;89.00;;;;;;4911594;29;20225;-72
2022/12/11 04:01:32;;;;;;;5.45;3.28;;;4.20;89.00;;;;;;4909711;29;20639;-73
2022/12/11 04:04:01;;;;;;;6.82;3.70;;;4.20;89.00;;;;;;4926105;29;20227;-73
2022/12/11 04:06:29;;;;;;;6.95;4.10;;;4.20;89.00;;;;;;4911088;29;20206;-72
2022/12/11 04:08:57;;;;;;;5.10;3.78;;;4.20;88.90;;;;;;4929458;29;20248;-74
2022/12/11 04:11:35;;;;;;;5.88;3.75;;;4.20;88.90;;;;;;4929749;29;20201;-75
2022/12/11 04:16:51;;;;;;;6.25;3.67;;;4.20;89.00;;;;;;4919019;29;20571;-73
2022/12/11 04:24:55;;;;;;;6.00;3.60;;;4.20;89.00;;;;;;4894972;29;20225;-73
2022/12/11 04:30:14;;;;;;;3.40;2.83;;;4.20;89.00;;;;;;4919779;29;20287;-72
2022/12/11 04:32:43;;;;;;;4.93;3.15;;;4.20;89.00;;;;;;4912909;29;20289;-72
2022/12/11 04:35:12;;;;;;;6.00;3.28;;;4.20;89.00;;;;;;4910612;29;20715;-72
2022/12/11 04:37:41;;;;;;;5.70;3.67;;;4.20;89.10;;;;;;4910326;29;20240;-73
2022/12/11 04:40:13;;;;;;;7.05;3.63;;;4.20;89.00;;;;;;4926838;29;20681;-72
2022/12/11 04:42:42;;;;;;;5.13;2.85;;;4.20;89.00;;;;;;4919774;29;20288;-70
2022/12/11 04:45:11;;;;;;;3.35;2.97;;;4.20;89.10;;;;;;4911534;29;20214;-69
2022/12/11 04:47:41;;;;;;;4.50;3.35;;;4.20;89.00;;;;;;4908502;29;20249;-71
2022/12/11 04:50:13;;;;;;;4.75;3.20;;;4.20;88.90;;;;;;4912267;29;20220;-71
2022/12/11 04:52:44;;;;;;;5.13;3.47;;;4.20;89.00;;;;;;4910654;29;20233;-69
2022/12/11 04:55:13;;;;;;;5.18;3.50;;;4.20;89.00;;;;;;4920504;29;20293;-70
2022/12/11 04:57:41;;;;;;;6.03;3.60;;;4.20;89.00;;;;;;4909598;29;20225;-70
2022/12/11 05:00:12;;;;;;;5.70;4.00;;;4.20;88.90;;;;;;4910207;29;20201;-70
2022/12/11 05:02:42;;;;;;;5.88;3.22;;;4.20;89.00;;;;;;4910715;29;20193;-71
2022/12/11 05:05:12;;;;;;;4.55;3.05;;;4.20;88.90;;;;;;4911801;29;20212;-70
2022/12/11 05:07:41;;;;;;;4.07;2.80;;;4.20;88.90;;;;;;4918895;29;20218;-69
2022/12/11 05:10:10;;;;;;;4.30;2.70;;;4.20;89.00;;;;;;4910343;29;20300;-69
2022/12/11 05:12:38;;;;;;;5.40;4.03;;;4.20;89.00;;;;;;4933810;29;20206;-70
2022/12/11 05:15:07;;;;;;;6.15;3.40;;;4.20;88.90;;;;;;4915394;29;20280;-70
2022/12/11 05:17:36;;;;;;;4.47;3.28;;;4.20;89.00;;;;;;4909058;29;20224;-71
2022/12/11 05:20:05;;;;;;;4.43;3.35;;;4.20;89.00;;;;;;4906978;29;20206;-71
2022/12/11 05:22:35;;;;;;;4.80;3.45;;;4.20;88.90;;;;;;4903010;29;20229;-70
2022/12/11 05:25:04;;;;;;;4.80;3.47;;;4.20;89.00;;;;;;4905898;29;20213;-69
2022/12/11 05:27:33;;;;;;;3.83;3.10;;;4.20;88.90;;;;;;4907776;29;20572;-70
2022/12/11 05:30:01;;;;;;;5.18;3.70;;;4.20;88.90;;;;;;4923548;29;20197;-70
2022/12/11 05:32:30;;;;;;;4.80;2.90;;;4.20;88.90;;;;;;4916094;29;20229;-69
2022/12/11 05:34:58;;;;;;;6.68;3.15;;;4.20;88.90;;;;;;4909634;29;20220;-71
2022/12/11 05:37:26;;;;;;;4.25;2.58;;;4.20;89.00;;;;;;4923713;29;20221;-70
2022/12/11 05:39:56;;;;;;;5.80;3.30;;;4.20;88.90;;;;;;4910435;29;20698;-71
2022/12/11 05:42:24;;;;;;;5.78;3.75;;;4.20;89.00;;;;;;4912919;29;20300;-69
2022/12/11 05:44:56;;;;;;;4.13;2.60;;;4.20;89.00;;;;;;4914387;29;20213;-70
2022/12/11 05:47:24;;;;;;;3.75;2.80;;;4.20;89.00;;;;;;4907153;29;20313;-70
2022/12/11 05:49:53;;;;;;;4.32;3.10;;;4.20;88.90;;;;;;4924284;29;20329;-71
2022/12/11 05:52:21;;;;;;;5.05;3.30;;;4.20;88.90;;;;;;4941430;29;20224;-71
2022/12/11 05:54:50;;;;;;;4.82;3.20;;;4.20;88.90;;;;;;4908757;29;20196;-70
2022/12/11 05:57:19;;;;;;;5.57;3.30;;;4.20;88.90;;;;;;4920821;29;20343;-71
2022/12/11 05:59:48;;;;;;;4.63;2.85;;;4.10;88.90;;;;;;4928762;29;20232;-71
2022/12/11 06:02:16;;;;;;;4.88;2.92;;;4.20;88.90;;;;;;4907527;29;20666;-70
2022/12/11 06:04:45;;;;;;;4.45;3.40;;;4.20;89.00;;;;;;4909313;29;20594;-70
2022/12/11 06:07:13;;;;;;;4.30;3.03;;;4.20;88.90;;;;;;4923759;29;20953;-72
2022/12/11 06:09:42;;;;;;;3.45;2.42;;;4.20;89.00;;;;;;4906054;29;20693;-71
2022/12/11 06:12:10;;;;;;;3.95;3.55;;;4.20;89.00;;;;;;4910847;29;20297;-70
2022/12/11 06:14:40;;;;;;;3.63;2.88;;;4.20;88.90;;;;;;4914834;29;20284;-70
2022/12/11 06:17:08;;;;;;;5.00;3.42;;;4.10;88.90;;;;;;4917192;29;20236;-71
2022/12/11 06:19:36;;;;;;;4.55;3.58;;;4.20;90.00;;;;;;4909546;29;20186;-72
2022/12/11 06:22:05;;;;;;;4.32;3.40;;;4.20;88.90;;;;;;4911558;29;20202;-72
2022/12/11 06:24:33;;;;;;;4.95;3.20;;;4.10;88.90;;;;;;4912792;29;20309;-72
2022/12/11 06:27:02;;;;;;;4.57;3.03;;;4.20;88.90;;;;;;4909957;29;20278;-73
2022/12/11 06:29:30;;;;;;;4.82;2.90;;;4.20;88.90;;;;;;4917268;29;20233;-72
2022/12/11 06:32:00;;;;;;;5.50;3.47;;;4.10;88.90;;;;;;4916237;29;20232;-73
2022/12/11 06:34:28;;;;;;;4.97;3.22;;;4.10;88.90;;;;;;4915702;29;20232;-74
2022/12/11 06:36:57;;;;;;;4.10;3.30;;;4.10;88.90;;;;;;4908679;29;20256;-72
2022/12/11 06:39:25;;;;;;;5.55;3.70;;;4.20;88.90;;;;;;4909857;29;20231;-75
2022/12/11 06:41:53;;;;;;;4.95;3.03;;;4.20;88.90;;;;;;4913697;29;20200;-73
2022/12/11 06:44:22;;;;;;;5.70;3.50;;;4.10;88.90;;;;;;4926324;29;20221;-73
2022/12/11 06:46:50;;;;;;;5.15;3.50;;;4.10;88.80;;;;;;4911187;29;20208;-73
2022/12/11 06:49:20;;;;;;;4.82;3.05;;;4.10;88.90;;;;;;4907232;29;20252;-72
2022/12/11 06:51:48;;;;;;;3.15;2.85;;;4.10;88.80;;;;;;4910461;29;20201;-73
2022/12/11 06:54:17;;;;;;;4.45;2.97;;;4.10;88.90;;;;;;4912230;29;20317;-73
2022/12/11 06:56:45;;;;;;;3.83;3.47;;;4.10;88.80;;;;;;4919154;29;20192;-73
2022/12/11 06:59:13;;;;;;;5.85;3.30;;;4.10;88.90;;;;;;4915390;28;20307;-73
2022/12/11 07:01:42;;;;;;;4.15;2.80;;;4.10;88.90;;;;;;4908643;29;20185;-72
2022/12/11 07:04:10;;;;;;;3.90;2.70;;;4.10;88.90;;;;;;4916943;28;20232;-73
2022/12/11 07:06:40;;;;;;;4.63;2.85;;;4.10;88.90;;;;;;4892760;29;20217;-73
2022/12/11 07:09:08;;;;;;;6.03;3.40;;;4.10;88.90;;;;;;4913428;29;20217;-74
2022/12/11 07:11:37;;;;;;;5.10;2.95;;;4.10;88.90;;;;;;4921084;29;20317;-74
2022/12/11 07:14:05;;;;;;;6.10;3.72;;;4.10;88.90;;;;;;4916195;29;20324;-73
2022/12/11 07:16:33;;;;;;;4.70;3.15;;;4.10;88.90;;;;;;4909056;29;20221;-74
2022/12/11 07:19:02;;;;;;;4.68;2.92;;;4.10;88.90;;;;;;4926668;29;20630;-70
2022/12/11 07:21:31;;;;;;;7.68;4.35;;;4.10;88.90;;;;;;4910894;29;20652;-73
2022/12/11 07:24:00;;;;;;;9.13;4.47;;;4.10;88.90;;;;;;4907501;29;20300;-73
2022/12/11 07:26:29;;;;;;;6.68;4.03;;;4.10;88.90;;;;;;4915348;29;20225;-74
2022/12/11 07:28:59;;;;;;;5.75;3.88;;;4.10;88.90;;;;;;4924632;29;20229;-73
2022/12/11 07:31:29;;;;;;;4.53;3.30;;;4.10;88.90;;;;;;4933477;29;20202;-70
2022/12/11 07:34:00;;;;;;;5.80;3.20;;;4.10;88.90;;;;;;4913760;29;20264;-70
2022/12/11 07:36:29;;;;;;;4.35;3.50;;;4.10;88.90;;;;;;4921332;29;20201;-69
2022/12/11 07:38:59;;;;;;;6.20;3.85;;;4.10;88.90;;;;;;4913812;29;20252;-69
2022/12/11 07:41:28;;;;;;;4.78;3.70;;;4.10;88.90;;;;;;4935502;29;20284;-71
2022/12/11 07:43:56;;;;;;;4.28;3.20;;;4.10;88.90;;;;;;4924675;29;20591;-69
2022/12/11 07:46:28;;;;;;;7.13;3.70;;;4.10;88.90;;;;;;4909511;29;20310;-69
2022/12/11 07:48:56;;;;;;;4.90;3.22;;;4.10;88.90;;;;;;4930255;28;20735;-70
2022/12/11 07:51:26;;;;;;;6.45;4.75;;;4.10;88.90;;;;;;4936059;29;20236;-71
2022/12/11 07:53:57;;;;;;;4.65;3.10;;;4.10;88.70;;;;;;4912535;29;20288;-70
2022/12/11 07:56:28;;;;;;;4.38;3.05;;;4.10;88.80;;;;;;4909565;29;20207;-71
2022/12/11 07:58:56;;;;;;;7.00;3.70;;;4.10;88.90;;;;;;4924340;29;20303;-70
2022/12/11 08:01:29;;;;;;;7.20;3.65;;;4.10;88.90;;;;;;4912963;29;20210;-72
2022/12/11 08:03:58;;;;;;;5.63;3.22;;;4.10;88.90;;;;;;4909521;29;20240;-73
2022/12/11 08:06:28;;;;;;;7.82;4.13;;;4.10;89.00;;;;;;4920125;29;20309;-72
2022/12/11 08:08:57;;;;;;;4.70;3.03;;;4.10;88.90;;;;;;4912723;29;20221;-73
2022/12/11 08:11:28;;;;;;;8.38;4.35;;;4.10;88.90;;;;;;4913094;29;20212;-73
2022/12/11 08:13:58;;;;;;;7.50;4.38;;;4.10;88.90;;;;;;4910641;29;20227;-70
2022/12/11 08:16:26;;;;;;;7.30;4.78;;;4.10;88.80;;;;;;4909900;29;20817;-72
2022/12/11 08:18:55;;;;;;;4.47;3.05;;;4.10;88.80;;;;;;4928379;29;20956;-72
2022/12/11 08:21:26;;;;;;;4.10;2.80;;;4.10;88.90;;;;;;4944966;29;20209;-72
2022/12/11 08:23:54;;;;;;;4.88;3.85;;;4.10;88.90;;;;;;4913486;29;20849;-70
2022/12/11 08:26:25;;;;;;;4.80;3.20;;;4.10;88.90;;;;;;4911636;29;20237;-73
2022/12/11 08:28:55;;;;;;;5.20;3.65;;;4.10;88.90;;;;;;4917665;29;20756;-72
2022/12/11 08:31:24;;;;;;;5.97;3.60;;;4.10;88.90;;;;;;4928275;29;20263;-72
2022/12/11 08:33:54;;;;;;;5.03;3.20;;;4.10;88.90;;;;;;4911265;29;20222;-72
2022/12/11 08:36:23;;;;;;;5.40;3.28;;;4.10;88.90;;;;;;4911469;29;20204;-72
2022/12/11 08:38:53;;;;;;;5.40;3.40;;;4.10;88.90;;;;;;4922448;29;20227;-73
2022/12/11 08:41:23;;;;;;;5.82;3.40;;;4.10;88.90;;;;;;4910490;29;20677;-73
2022/12/11 08:43:53;;;;;;;6.40;4.00;;;4.10;88.90;;;;;;4910750;29;20335;-73
2022/12/11 08:46:25;;;;;;;4.22;3.78;;;4.10;88.90;;;;;;4921973;29;20288;-73
2022/12/11 08:48:54;;;;;;;5.50;3.45;;;4.10;88.80;;;;;;4929030;29;20499;-74
2022/12/11 08:51:26;;;;;;;5.97;4.00;;;4.10;88.90;;;;;;4943109;29;20211;-73
2022/12/11 08:53:55;;;;;;;5.05;3.35;;;4.10;88.90;;;;;;4918436;29;20308;-72
2022/12/11 08:56:24;;;;;;;5.63;3.65;;;4.10;88.90;;;;;;4919489;29;20681;-72
2022/12/11 08:58:53;;;;;;;6.45;4.00;;;4.10;88.90;;;;;;4910910;29;20233;-72
2022/12/11 09:01:25;;;;;;;6.93;3.50;;;4.10;88.80;;;;;;4924976;29;20190;-73
2022/12/11 09:03:55;;;;;;;3.83;2.58;;;4.10;88.80;;;;;;4912059;29;20217;-72
2022/12/11 09:06:26;;;;;;;6.50;4.03;;;4.10;88.90;;;;;;4918081;29;20301;-72
2022/12/11 09:08:55;;;;;;;5.60;3.67;;;4.10;88.80;;;;;;4910695;29;20232;-72
2022/12/11 09:11:27;;;;;;;3.50;2.72;;;4.10;88.90;;;;;;4936424;28;20200;-73
2022/12/11 09:13:55;;;;;;;6.47;3.95;;;4.10;88.80;;;;;;4914390;29;20308;-72
2022/12/11 09:16:28;;;;;;;7.93;4.18;;;4.10;88.80;;;;;;4911266;29;20189;-72
2022/12/11 09:18:58;;;;;;;7.22;3.47;;;4.10;88.80;;;;;;4914964;29;20233;-73
2022/12/11 09:21:28;;;;;;;5.18;3.22;;;4.10;88.80;;;;;;4910595;29;20568;-72
2022/12/11 09:23:59;;;;;;;5.47;3.83;;;4.10;88.90;;;;;;4908740;29;20585;-73
2022/12/11 09:26:28;;;;;;;5.07;3.83;;;4.20;88.90;;;;;;4918901;29;20210;-73
2022/12/11 09:28:58;;;;;;;5.82;3.38;;;4.10;88.90;;;;;;4918135;29;20327;-72
2022/12/11 09:31:30;;;;;;;5.97;3.85;;;4.10;88.80;;;;;;4911462;29;20228;-73
2022/12/11 09:34:01;;;;;;;7.68;3.30;;;4.10;88.80;;;;;;4913546;29;20361;-72
2022/12/11 09:36:29;;;;;;;5.57;3.38;;;4.10;88.90;;;;;;4926006;29;20201;-73
2022/12/11 09:39:00;;;;;;;5.78;3.60;;;4.10;88.90;;;;;;4915745;29;20262;-72
2022/12/11 09:41:40;;;;;;;5.32;3.35;;;4.10;88.80;;;;;;4920116;29;20808;-73
2022/12/11 09:44:34;;;;;;;4.60;3.40;;;4.20;88.90;;;;;;4914961;29;20236;-70
2022/12/11 09:47:20;;;;;;;4.40;3.38;;;4.10;88.90;;;;;;4905580;29;20232;-69
2022/12/11 09:49:53;;;;;;;5.15;3.05;;;4.10;88.80;;;;;;4925537;29;20751;-70
2022/12/11 09:52:28;;;;;;;5.55;3.40;;;4.10;89.00;;;;;;4911479;29;20280;-69
2022/12/11 09:54:59;;;;;;;5.45;3.30;;;4.10;88.90;;;;;;4912720;29;20200;-69
2022/12/11 09:57:40;;;;;;;5.85;3.50;;;4.10;88.90;;;;;;4920519;29;20228;-69
2022/12/11 10:00:18;;;;;;;5.43;3.45;;;4.10;88.90;;;;;;4909862;29;20205;-68
2022/12/11 10:03:07;;;;;;;5.55;3.00;;;4.20;88.90;;;;;;4916102;29;20392;-69
2022/12/11 10:05:43;;;;;;;6.40;3.60;;;4.10;88.90;;;;;;4905270;29;20296;-69
2022/12/11 10:08:16;;;;;;;6.25;3.72;;;4.10;88.90;;;;;;4908241;29;20221;-69
2022/12/11 10:10:51;;;;;;;4.90;3.40;;;4.10;88.80;;;;;;4909936;29;20190;-69
2022/12/11 10:13:29;;;;;;;5.45;3.22;;;4.10;88.90;;;;;;4908326;28;20705;-70
2022/12/11 10:16:03;;;;;;;6.57;3.67;;;4.10;88.90;;;;;;4918848;29;20201;-70
2022/12/11 10:18:34;;;;;;;5.75;3.33;;;4.10;88.80;;;;;;4927397;29;20228;-68
2022/12/11 10:21:03;;;;;;;5.53;3.38;;;4.10;88.80;;;;;;4910391;29;20209;-69
2022/12/11 10:23:38;;;;;;;5.57;4.50;;;4.10;88.90;;;;;;4906676;29;20229;-69
2022/12/11 10:26:10;;;;;;;5.65;3.67;;;4.10;88.90;;;;;;4913021;29;20208;-70
2022/12/11 10:28:39;;;;;;;8.75;6.25;;;4.10;88.80;;;;;;4916121;29;20236;-69
2022/12/11 10:31:15;;;;;;;5.55;3.83;;;4.10;88.70;;;;;;4917557;29;20205;-71
2022/12/11 10:33:54;;;;;;;5.53;3.78;;;4.10;88.80;;;;;;4907904;29;20224;-68
2022/12/11 10:36:27;;;;;;;5.68;4.35;;;4.10;88.90;;;;;;4907696;29;20685;-70
2022/12/11 10:38:56;;;;;;;7.80;3.53;;;4.10;88.80;;;;;;4909556;29;20600;-70
2022/12/11 10:41:33;;;;;;;3.55;2.80;;;4.10;88.80;;;;;;4913191;29;20201;-69
2022/12/11 10:44:16;;;;;;;6.57;4.10;;;4.10;88.90;;;;;;4912595;28;20228;-69
2022/12/11 10:46:45;;;;;;;7.00;3.60;;;4.10;88.80;;;;;;4909395;29;20256;-70
2022/12/11 10:49:26;;;;;;;6.57;4.05;;;4.10;88.90;;;;;;4926461;28;20233;-68
2022/12/11 10:51:55;;;;;;;4.88;3.42;;;4.10;88.90;;;;;;4921082;29;20205;-69
2022/12/11 10:54:32;;;;;;;5.97;3.90;;;4.10;88.90;;;;;;4913888;29;20235;-68
2022/12/11 10:57:02;;;;;;;6.25;3.83;;;4.10;88.80;;;;;;4909542;29;20225;-69
2022/12/11 10:59:36;;;;;;;5.85;3.45;;;4.10;88.80;;;;;;4917903;29;20284;-69
2022/12/11 11:02:07;;;;;;;5.45;3.88;;;4.10;88.90;;;;;;4919544;29;20201;-69
2022/12/11 11:04:39;;;;;;;7.10;4.70;;;4.10;88.80;;;;;;4911043;29;20211;-68
2022/12/11 11:07:14;;;;;;;4.78;3.55;;;4.10;88.90;;;;;;4909934;29;20310;-70
2022/12/11 11:09:42;;;;;;;5.72;3.58;;;4.10;88.80;;;;;;4922446;29;20205;-69
2022/12/11 11:12:23;;;;;;;5.32;3.72;;;4.10;88.90;;;;;;4910296;29;20227;-69
2022/12/11 11:15:02;;;;;;;9.13;4.50;;;4.10;88.90;;;;;;4909755;29;20771;-69
2022/12/11 11:17:32;;;;;;;5.18;3.53;;;4.10;88.90;;;;;;4910587;29;20308;-68
2022/12/11 11:20:13;;;;;;;7.07;3.38;;;4.10;88.90;;;;;;4910063;29;20244;-69
2022/12/11 11:22:46;;;;;;;6.97;3.90;;;4.10;88.90;;;;;;4915308;29;20203;-69
2022/12/11 11:25:20;;;;;;;4.07;3.03;;;4.10;88.90;;;;;;4910611;29;20681;-69
2022/12/11 11:27:54;;;;;;;5.43;4.00;;;4.10;88.80;;;;;;4913680;29;20237;-70
2022/12/11 11:30:26;;;;;;;5.13;3.50;;;4.20;88.90;;;;;;4909251;29;20220;-70
2022/12/11 11:32:56;;;;;;;6.50;3.60;;;4.10;88.80;;;;;;4901298;29;20677;-69
2022/12/11 11:35:27;;;;;;;6.53;3.80;;;4.10;88.90;;;;;;4928947;29;20205;-68
2022/12/11 11:38:03;;;;;;;6.95;3.90;;;4.10;88.90;;;;;;4918372;29;20233;-69
2022/12/11 11:40:37;;;;;;;7.57;3.47;;;4.10;88.90;;;;;;4920571;29;20193;-69
2022/12/11 11:43:15;;;;;;;5.43;3.55;;;4.10;88.90;;;;;;4931701;29;20205;-70
2022/12/11 11:45:50;;;;;;;6.88;3.90;;;4.10;88.80;;;;;;4920924;29;20575;-70
2022/12/11 11:48:32;;;;;;;8.32;4.32;;;4.10;88.80;;;;;;4927887;29;20228;-69
2022/12/11 11:51:12;;;;;;;6.85;4.28;;;4.10;88.90;;;;;;4912912;29;20232;-69
2022/12/11 11:53:40;;;;;;;7.85;4.47;;;4.10;88.90;;;;;;4908997;29;20332;-69
2022/12/11 11:56:21;;;;;;;4.97;3.70;;;4.10;88.80;;;;;;4914917;29;20260;-69
2022/12/11 11:58:59;;;;;;;4.63;3.53;;;4.10;88.80;;;;;;4911538;29;20705;-68
2022/12/11 12:01:28;;;;;;;5.68;3.50;;;4.10;88.80;;;;;;4919781;29;20208;-69
2022/12/11 12:03:57;;;;;;;5.07;3.53;;;4.10;88.80;;;;;;4909421;29;20220;-69
2022/12/11 12:06:38;;;;;;;6.15;3.85;;;4.20;88.90;;;;;;4934217;29;21741;-69
2022/12/11 12:09:19;;;;;;;6.82;3.47;;;4.10;88.80;;;;;;4911540;29;20251;-69
2022/12/11 12:11:54;;;;;;;4.60;3.20;;;4.10;88.80;;;;;;4923290;29;20568;-69
2022/12/11 12:14:25;;;;;;;5.80;4.00;;;4.20;88.90;;;;;;4910056;29;20705;-69
2022/12/11 12:17:22;;;;;;;5.55;3.42;;;4.20;88.90;;;;;;4911887;29;20221;-69
2022/12/11 12:20:02;;;;;;;5.32;3.42;;;4.10;88.90;;;;;;4906465;29;20224;-69
2022/12/11 12:22:44;;;;;;;3.60;2.78;;;4.10;88.80;;;;;;4910612;29;20309;-69
2022/12/11 12:25:20;;;;;;;7.25;4.05;;;4.10;88.90;;;;;;4919014;29;20189;-69
2022/12/11 12:27:56;;;;;;;8.38;4.50;;;4.10;88.80;;;;;;4920847;29;20217;-69
2022/12/11 12:30:25;;;;;;;8.00;4.28;;;4.20;88.90;;;;;;4925602;29;20201;-69
2022/12/11 12:33:06;;;;;;;11.23;5.55;;;4.20;88.90;;;;;;4940111;29;20228;-69
2022/12/11 12:35:36;;;;;;;4.72;3.70;;;4.20;88.80;;;;;;4917217;29;20715;-70
2022/12/11 12:38:14;;;;;;;7.18;4.28;;;4.20;88.90;;;;;;4917508;28;20260;-69
2022/12/11 12:40:54;;;;;;;5.68;4.32;;;4.20;88.70;;;;;;4927039;29;20570;-70
2022/12/11 12:43:45;;;;;;;6.88;4.10;;;4.10;88.80;;;;;;4918427;29;20217;-69
2022/12/11 12:46:27;;;;;;;8.38;4.95;;;4.10;88.80;;;;;;4911925;29;20649;-69
2022/12/11 12:48:58;;;;;;;7.70;4.00;;;4.10;88.80;;;;;;4907493;29;20221;-69
2022/12/11 12:51:27;;;;;;;8.88;4.55;;;4.20;88.90;;;;;;4928141;29;20962;-69
2022/12/11 12:54:01;;;;;;;7.40;5.90;;;4.20;88.80;;;;;;4914956;29;20225;-73
2022/12/11 12:56:32;;;;;;;7.07;4.18;;;4.20;88.70;;;;;;4930534;29;20219;-73
2022/12/11 12:59:01;;;;;;;7.15;4.47;;;4.20;88.80;;;;;;4922912;29;20256;-72
2022/12/11 13:01:31;;;;;;;7.32;4.10;;;4.20;88.80;;;;;;4910876;29;20220;-73
2022/12/11 13:04:02;;;;;;;4.72;3.50;;;4.20;88.90;;;;;;4925970;28;20231;-72
2022/12/11 13:06:33;;;;;;;7.45;4.75;;;4.20;88.70;;;;;;4916688;29;20213;-73
2022/12/11 13:09:17;;;;;;;7.53;4.68;;;4.20;88.80;;;;;;4930726;28;20249;-73
2022/12/11 13:11:48;;;;;;;6.53;3.50;;;4.20;88.90;;;;;;4927242;29;20232;-74
2022/12/11 13:14:28;;;;;;;6.43;4.75;;;4.20;88.90;;;;;;4910279;29;20232;-73
2022/12/11 13:17:22;;;;;;;5.65;4.28;;;4.20;88.90;;;;;;4929438;29;20201;-73
2022/12/11 13:20:03;;;;;;;9.15;4.75;;;4.20;88.90;;;;;;4924544;29;20589;-74
2022/12/11 13:22:32;;;;;;;6.97;4.28;;;4.20;88.90;;;;;;4927622;29;20189;-72
2022/12/11 13:25:16;;;;;;;7.15;4.22;;;4.20;88.90;;;;;;4910115;29;20212;-73
2022/12/11 13:27:45;;;;;;;6.68;4.47;;;4.20;89.00;;;;;;4910951;29;20732;-74
2022/12/11 13:30:23;;;;;;;6.10;3.85;;;4.20;89.00;;;;;;4926644;29;20197;-73
2022/12/11 13:33:01;;;;;;;7.45;5.07;;;4.20;88.90;;;;;;4909923;29;20201;-72